Time;durP1;ratioP1;P1;durP2;ratioP2;P2;SDS_P1;SDS_P2;PMS_P1;PMS_P2;Temp;Humidity;BMP_temperature;BMP_pressure;BME280_temperature;BME280_humidity;BME280_pressure;Samples;Min_cycle;Max_cycle;Signal;HPM_P1;HPM_P2
2020/12/25 00:02:09;;;;;;;1.77;0.85;;;;;;;21.95;42.37;101869.91;4998214;28;124423;-48
2020/12/25 00:04:35;;;;;;;2.25;0.85;;;;;;;21.95;42.48;101874.47;4994774;28;124052;-47
2020/12/25 00:07:04;;;;;;;2.80;0.82;;;;;;;21.95;42.41;101883.41;5002104;28;109008;-48
2020/12/25 00:09:31;;;;;;;1.08;0.70;;;;;;;21.95;42.47;101885.25;5001543;28;108933;-48
2020/12/25 00:11:58;;;;;;;1.05;0.60;;;;;;;21.95;42.56;101885.25;5006694;28;124154;-48
2020/12/25 00:14:24;;;;;;;1.42;0.75;;;;;;;21.95;42.51;101898.75;5009520;28;124689;-48
2020/12/25 00:16:51;;;;;;;1.00;0.60;;;;;;;21.95;42.63;101899.59;4985539;28;110243;-48
2020/12/25 00:19:17;;;;;;;2.10;0.88;;;;;;;21.95;42.69;101896.88;5005237;28;110184;-48
2020/12/25 00:21:44;;;;;;;2.00;1.00;;;;;;;21.96;42.78;101897.75;4997430;28;124123;-48
2020/12/25 00:24:11;;;;;;;1.65;0.70;;;;;;;21.95;42.80;101902.28;4999459;28;123963;-48
2020/12/25 00:26:38;;;;;;;1.42;0.65;;;;;;;21.96;42.86;101905.84;4996437;28;109435;-48
2020/12/25 00:29:04;;;;;;;1.80;0.90;;;;;;;21.95;42.73;101912.22;4997249;28;108827;-48
2020/12/25 00:31:38;;;;;;;1.55;0.80;;;;;;;21.95;42.75;101923.88;4994994;28;123982;-47
2020/12/25 00:34:10;;;;;;;2.03;0.77;;;;;;;21.95;42.87;101928.41;4998524;28;124273;-48
2020/12/25 00:36:39;;;;;;;1.48;0.70;;;;;;;21.95;42.82;101934.66;4998868;28;109575;-47
2020/12/25 00:39:08;;;;;;;1.20;0.68;;;;;;;21.96;42.97;101939.09;5003435;28;109035;-47
2020/12/25 00:41:39;;;;;;;2.35;0.70;;;;;;;21.96;42.97;101941.78;4995741;28;123940;-47
2020/12/25 00:44:06;;;;;;;2.60;0.80;;;;;;;21.95;42.94;101929.25;5001249;28;124785;-47
2020/12/25 00:46:33;;;;;;;1.67;0.70;;;;;;;21.96;43.01;101935.50;4996012;28;109434;-47
2020/12/25 00:48:59;;;;;;;2.08;0.70;;;;;;;21.96;42.88;101935.50;4995786;28;108189;-47
2020/12/25 00:51:29;;;;;;;1.65;0.70;;;;;;;21.96;43.03;101949.88;4996941;28;123345;-47
2020/12/25 00:53:55;;;;;;;1.45;0.70;;;;;;;21.96;43.11;101957.97;4998786;28;124161;-48
2020/12/25 00:56:30;;;;;;;1.05;0.50;;;;;;;21.95;43.12;101950.84;4990196;28;108195;-47
2020/12/25 00:58:56;;;;;;;1.75;0.70;;;;;;;21.96;43.07;101946.28;4999199;28;108514;-47
2020/12/25 01:01:27;;;;;;;0.98;0.60;;;;;;;21.96;43.26;101947.19;4999447;28;123287;-47
2020/12/25 01:04:11;;;;;;;1.60;0.68;;;;;;;21.95;43.30;101950.84;4998941;28;123746;-47
2020/12/25 01:06:38;;;;;;;2.58;0.70;;;;;;;21.97;43.28;101943.50;4995373;28;109609;-47
2020/12/25 01:09:04;;;;;;;1.92;0.80;;;;;;;21.97;43.29;101954.28;4999687;28;110264;-48
2020/12/25 01:11:31;;;;;;;1.38;0.70;;;;;;;21.97;43.41;101943.50;4998584;28;123912;-48
2020/12/25 01:13:57;;;;;;;1.45;0.70;;;;;;;21.96;43.41;101952.56;4992849;28;124176;-47
2020/12/25 01:16:24;;;;;;;1.90;0.70;;;;;;;21.97;43.44;101956.97;4995860;28;109867;-47
2020/12/25 01:18:51;;;;;;;1.23;0.60;;;;;;;21.96;43.48;101957.97;4998406;28;109251;-48
2020/12/25 01:21:17;;;;;;;1.35;0.68;;;;;;;21.97;43.43;101958.81;4996168;28;124756;-48
2020/12/25 01:23:44;;;;;;;1.42;0.65;;;;;;;21.97;43.42;101965.06;4998837;28;123868;-48
2020/12/25 01:26:12;;;;;;;1.55;0.82;;;;;;;21.96;43.44;101966.06;4997365;28;109182;-48
2020/12/25 01:28:39;;;;;;;1.05;0.68;;;;;;;21.97;43.55;101970.47;4997750;28;108930;-48
2020/12/25 01:31:06;;;;;;;1.23;0.60;;;;;;;21.97;43.47;101975.88;4998794;28;123948;-48
2020/12/25 01:33:34;;;;;;;1.02;0.60;;;;;;;21.97;43.42;101981.25;4998485;28;123806;-47
2020/12/25 01:36:03;;;;;;;0.82;0.50;;;;;;;21.98;43.56;101982.09;4999546;28;109252;-48
2020/12/25 01:38:30;;;;;;;1.27;0.68;;;;;;;21.97;43.58;101992.03;5000448;28;109627;-48
2020/12/25 01:40:57;;;;;;;0.98;0.65;;;;;;;21.99;43.56;101999.19;4999083;28;124735;-47
2020/12/25 01:43:24;;;;;;;1.75;0.68;;;;;;;21.99;43.49;101999.19;4992624;28;124886;-48
2020/12/25 01:45:52;;;;;;;1.95;0.70;;;;;;;21.97;43.57;102010.94;4997363;28;109173;-47
2020/12/25 01:48:19;;;;;;;1.50;0.63;;;;;;;21.97;43.55;102008.22;4999247;28;108882;-48
2020/12/25 01:50:48;;;;;;;1.13;0.65;;;;;;;21.97;43.50;102019.03;4997607;28;124911;-48
2020/12/25 01:53:17;;;;;;;0.75;0.50;;;;;;;21.97;43.66;102024.41;4984442;28;123634;-48
2020/12/25 01:55:44;;;;;;;1.48;0.60;;;;;;;21.99;43.67;102020.75;4997092;28;110968;-48
2020/12/25 01:58:13;;;;;;;2.13;0.80;;;;;;;21.99;43.61;102026.16;4998478;28;109831;-48
2020/12/25 02:00:41;;;;;;;1.58;0.60;;;;;;;21.96;43.71;102028.13;4998213;28;124417;-47
2020/12/25 02:03:07;;;;;;;2.00;0.82;;;;;;;21.96;43.81;102025.41;4995397;28;122600;-47
2020/12/25 02:05:35;;;;;;;0.60;0.57;;;;;;;21.97;43.63;102029.81;4998292;28;109169;-48
2020/12/25 02:08:02;;;;;;;1.35;0.70;;;;;;;21.97;43.95;102029.81;4995616;28;109009;-48
2020/12/25 02:10:29;;;;;;;1.58;0.60;;;;;;;21.96;43.75;102032.63;5000845;28;124003;-48
2020/12/25 02:12:56;;;;;;;1.50;0.60;;;;;;;21.97;43.74;102035.22;4996580;28;124033;-47
2020/12/25 02:15:23;;;;;;;0.73;0.50;;;;;;;21.99;43.64;102042.34;4997755;28;109396;-47
2020/12/25 02:17:50;;;;;;;1.42;0.60;;;;;;;21.97;43.70;102051.41;4992347;28;108998;-47
2020/12/25 02:20:16;;;;;;;1.08;0.60;;;;;;;21.97;43.88;102048.69;4998566;28;124362;-48
2020/12/25 02:22:43;;;;;;;1.20;0.60;;;;;;;21.97;43.78;102051.41;4992871;28;123929;-46
2020/12/25 02:25:12;;;;;;;1.08;0.60;;;;;;;21.99;43.69;102058.53;4981314;28;109311;-45
2020/12/25 02:27:39;;;;;;;1.30;0.70;;;;;;;21.97;43.85;102056.78;5037034;22;108914;-42
2020/12/25 02:30:07;;;;;;;1.55;0.60;;;;;;;21.98;43.73;102063.03;5050845;27;123921;-43
2020/12/25 02:32:34;;;;;;;0.88;0.57;;;;;;;22.00;43.81;102065.63;5052423;27;123915;-42
2020/12/25 02:35:11;;;;;;;1.00;0.60;;;;;;;21.99;43.93;102063.94;5049165;27;109484;-42
2020/12/25 02:37:37;;;;;;;0.80;0.50;;;;;;;21.99;43.83;102080.13;5051042;27;109342;-42
2020/12/25 02:40:04;;;;;;;1.13;0.50;;;;;;;21.99;43.74;102080.13;5048967;27;124602;-42
2020/12/25 02:42:31;;;;;;;3.15;0.60;;;;;;;21.99;43.88;102074.72;5053953;27;124105;-42
2020/12/25 02:44:58;;;;;;;0.70;0.50;;;;;;;21.99;43.85;102090.91;5053634;27;110281;-42
2020/12/25 02:47:24;;;;;;;1.65;0.70;;;;;;;21.99;43.88;102093.59;5051242;27;110560;-42
2020/12/25 02:49:57;;;;;;;1.38;0.60;;;;;;;22.00;43.91;102092.63;5049314;27;124402;-43
2020/12/25 02:52:23;;;;;;;0.93;0.50;;;;;;;21.97;43.92;102091.88;5053297;27;124328;-42
2020/12/25 02:54:50;;;;;;;0.80;0.50;;;;;;;22.00;43.84;102089.91;5051546;27;109161;-42
2020/12/25 02:57:16;;;;;;;0.93;0.70;;;;;;;21.99;43.87;102090.91;5051255;27;109034;-42
2020/12/25 02:59:43;;;;;;;0.93;0.50;;;;;;;21.97;43.93;102089.16;5051208;27;124750;-42
2020/12/25 03:02:11;;;;;;;1.60;0.70;;;;;;;21.97;43.99;102083.78;5053857;27;123649;-42
2020/12/25 03:04:38;;;;;;;0.60;0.50;;;;;;;21.97;43.86;102089.16;5051329;27;109309;-42
2020/12/25 03:07:04;;;;;;;0.82;0.40;;;;;;;21.97;44.01;102086.47;5051995;27;109032;-42
2020/12/25 03:09:32;;;;;;;1.45;0.70;;;;;;;21.99;43.92;102080.13;5052133;27;124423;-42
2020/12/25 03:11:59;;;;;;;0.70;0.60;;;;;;;21.99;43.87;102074.72;5053673;27;123930;-42
2020/12/25 03:14:25;;;;;;;1.85;0.70;;;;;;;21.99;43.97;102080.13;5050209;27;109368;-42
2020/12/25 03:16:52;;;;;;;1.65;0.65;;;;;;;21.97;43.88;102078.38;5054119;27;108903;-42
2020/12/25 03:19:18;;;;;;;1.40;0.73;;;;;;;22.00;43.90;102092.63;5051133;27;124117;-42
2020/12/25 03:21:45;;;;;;;0.75;0.50;;;;;;;21.99;44.01;102085.50;5052772;27;124651;-42
2020/12/25 03:24:12;;;;;;;0.93;0.50;;;;;;;21.97;43.85;102086.47;5048543;27;109054;-42
2020/12/25 03:26:39;;;;;;;0.60;0.50;;;;;;;21.99;43.86;102085.50;5051500;27;108915;-42
2020/12/25 03:29:05;;;;;;;1.60;0.60;;;;;;;21.98;43.82;102092.72;5050625;27;124222;-42
2020/12/25 03:31:32;;;;;;;0.75;0.52;;;;;;;21.99;43.78;102096.31;5052168;27;123923;-42
2020/12/25 03:33:58;;;;;;;0.90;0.60;;;;;;;21.97;43.97;102094.56;5050176;27;110632;-42
2020/12/25 03:36:25;;;;;;;0.98;0.60;;;;;;;21.99;43.88;102107.09;5047808;27;110435;-42
2020/12/25 03:38:52;;;;;;;1.58;0.60;;;;;;;21.97;44.00;102116.16;5052922;27;124858;-42
2020/12/25 03:41:18;;;;;;;1.25;0.68;;;;;;;21.97;43.97;102105.34;5053155;27;124717;-42
2020/12/25 03:43:45;;;;;;;0.80;0.50;;;;;;;21.96;43.95;102098.25;5054041;27;108963;-42
2020/12/25 03:46:12;;;;;;;2.40;0.50;;;;;;;21.97;43.81;102105.34;5054346;27;108626;-42
2020/12/25 03:48:39;;;;;;;1.00;0.50;;;;;;;21.98;43.86;102111.59;5054079;27;124770;-42
2020/12/25 03:51:06;;;;;;;0.77;0.50;;;;;;;21.97;43.92;102110.75;5055399;27;123795;-42
2020/12/25 03:53:33;;;;;;;1.40;0.50;;;;;;;21.96;43.83;102114.44;5055861;27;109305;-42
2020/12/25 03:56:00;;;;;;;1.65;0.63;;;;;;;21.99;43.95;102117.88;5054665;27;109122;-42
2020/12/25 03:58:26;;;;;;;1.13;0.60;;;;;;;21.97;43.89;102118.84;5053098;27;123818;-42
2020/12/25 04:00:55;;;;;;;0.65;0.40;;;;;;;21.96;43.88;102114.44;5054114;27;124592;-42
2020/12/25 04:03:21;;;;;;;1.00;0.55;;;;;;;21.97;43.91;102116.16;5052828;27;109594;-42
2020/12/25 04:05:52;;;;;;;2.70;0.68;;;;;;;21.97;43.85;102115.28;5051740;27;108921;-42
2020/12/25 04:08:18;;;;;;;0.63;0.50;;;;;;;21.97;43.94;102113.44;5054027;27;124155;-42
2020/12/25 04:10:45;;;;;;;0.80;0.60;;;;;;;21.97;43.88;102113.44;5055559;27;124685;-43
2020/12/25 04:13:12;;;;;;;0.90;0.73;;;;;;;21.97;43.86;102110.75;5053420;27;109863;-42
2020/12/25 04:15:38;;;;;;;1.13;0.50;;;;;;;21.97;43.85;102121.53;5051942;27;109430;-43
2020/12/25 04:18:05;;;;;;;0.85;0.40;;;;;;;21.96;43.89;102119.84;5055985;27;124158;-42
2020/12/25 04:20:32;;;;;;;0.70;0.52;;;;;;;21.96;43.89;102125.22;5052848;27;124412;-42
2020/12/25 04:22:58;;;;;;;0.77;0.55;;;;;;;21.97;43.94;102126.94;5053133;27;110527;-42
2020/12/25 04:25:25;;;;;;;0.98;0.50;;;;;;;21.96;43.83;102119.84;5056045;27;110112;-42
2020/12/25 04:27:51;;;;;;;1.20;0.50;;;;;;;21.99;43.94;102128.69;5054917;27;124652;-42
2020/12/25 04:30:18;;;;;;;1.58;0.52;;;;;;;21.97;43.85;102132.34;5055913;27;123748;-42
2020/12/25 04:32:44;;;;;;;1.77;0.70;;;;;;;21.97;43.88;102126.94;5031704;27;109037;-42
2020/12/25 04:35:11;;;;;;;0.70;0.47;;;;;;;21.97;43.94;102131.47;5046862;27;109025;-42
2020/12/25 04:37:39;;;;;;;1.20;0.60;;;;;;;21.97;43.85;102131.47;5053507;27;124119;-42
2020/12/25 04:40:06;;;;;;;1.27;0.60;;;;;;;21.97;43.68;102132.34;5053935;27;123686;-42
2020/12/25 04:42:39;;;;;;;1.13;0.50;;;;;;;21.96;43.79;102141.41;5054359;27;109017;-42
2020/12/25 04:45:09;;;;;;;1.08;0.60;;;;;;;21.96;43.81;102141.41;5050371;27;108955;-42
2020/12/25 04:47:37;;;;;;;0.85;0.60;;;;;;;21.96;43.76;102144.13;5055451;27;124172;-42
2020/12/25 04:50:04;;;;;;;0.52;0.40;;;;;;;21.96;43.82;102141.41;5053073;27;124214;-42
2020/12/25 04:52:31;;;;;;;0.77;0.60;;;;;;;21.96;43.76;102146.81;5053260;27;109457;-42
2020/12/25 04:54:58;;;;;;;1.95;0.60;;;;;;;21.96;43.86;102146.81;5050643;27;108949;-42
2020/12/25 04:57:25;;;;;;;0.55;0.40;;;;;;;21.96;43.68;102146.81;5052281;27;124014;-42
2020/12/25 04:59:51;;;;;;;0.82;0.45;;;;;;;21.96;43.81;102152.22;5055808;27;124159;-43
2020/12/25 05:02:20;;;;;;;0.80;0.52;;;;;;;21.96;43.66;102152.22;5055648;27;109219;-40
2020/12/25 05:04:47;;;;;;;0.95;0.47;;;;;;;21.96;43.81;102152.22;5053313;27;109154;-40
2020/12/25 05:07:14;;;;;;;1.25;0.50;;;;;;;21.96;43.67;102152.22;5053081;27;123767;-40
2020/12/25 05:09:41;;;;;;;0.50;0.43;;;;;;;21.95;43.69;102161.25;5053079;27;124018;-42
2020/12/25 05:12:11;;;;;;;1.63;0.40;;;;;;;21.96;43.69;102173.78;5052896;27;110873;-42
2020/12/25 05:14:41;;;;;;;0.95;0.50;;;;;;;21.95;43.67;102174.75;5048524;27;110030;-42
2020/12/25 05:17:12;;;;;;;0.55;0.32;;;;;;;21.95;43.69;102177.44;5054939;27;124032;-42
2020/12/25 05:19:40;;;;;;;0.63;0.40;;;;;;;21.95;43.71;102177.44;5053103;27;124115;-42
2020/12/25 05:22:07;;;;;;;1.00;0.40;;;;;;;21.94;43.77;102181.13;5055723;27;109722;-42
2020/12/25 05:24:39;;;;;;;0.40;0.30;;;;;;;21.95;43.68;102188.22;5037296;27;109438;-42
2020/12/25 05:27:13;;;;;;;1.65;0.50;;;;;;;21.94;43.58;102181.13;5053224;27;124164;-43
2020/12/25 05:29:40;;;;;;;1.33;0.60;;;;;;;21.94;43.70;102186.53;5050083;27;124293;-42
2020/12/25 05:32:08;;;;;;;0.82;0.57;;;;;;;21.94;43.59;102197.31;5055031;27;109928;-42
2020/12/25 05:34:36;;;;;;;0.60;0.40;;;;;;;21.94;43.59;102197.31;5050492;27;109105;-42
2020/12/25 05:37:07;;;;;;;0.65;0.45;;;;;;;21.94;43.66;102201.81;5046340;27;123228;-42
2020/12/25 05:39:36;;;;;;;0.50;0.40;;;;;;;21.95;43.62;102203.56;5033957;27;122663;-42
2020/12/25 05:42:08;;;;;;;0.98;0.50;;;;;;;21.94;43.62;102202.72;5055061;27;109029;-42
2020/12/25 05:44:44;;;;;;;0.65;0.50;;;;;;;21.94;43.58;102197.31;5050143;27;108775;-43
2020/12/25 05:47:15;;;;;;;0.77;0.40;;;;;;;21.94;43.66;102199.13;5052345;27;123341;-42
2020/12/25 05:49:42;;;;;;;0.52;0.40;;;;;;;21.94;43.59;102199.13;5052597;27;124282;-42
2020/12/25 05:52:12;;;;;;;0.80;0.52;;;;;;;21.94;43.47;102201.81;5054659;27;109321;-42
2020/12/25 05:54:44;;;;;;;0.65;0.47;;;;;;;21.94;43.59;102208.09;5053072;27;109302;-42
2020/12/25 05:57:14;;;;;;;1.02;0.60;;;;;;;21.95;43.58;102204.41;5051613;27;127741;-42
2020/12/25 05:59:46;;;;;;;1.42;0.60;;;;;;;21.95;43.50;102212.50;5045037;27;123771;-42
2020/12/25 06:02:15;;;;;;;0.98;0.50;;;;;;;21.95;43.81;102208.97;5054644;27;110200;-42
2020/12/25 06:04:42;;;;;;;0.57;0.40;;;;;;;21.95;43.58;102209.81;5050471;27;109102;-43
2020/12/25 06:07:29;;;;;;;0.68;0.45;;;;;;;21.94;43.54;102223.41;5051426;27;124272;-43
2020/12/25 06:10:00;;;;;;;0.80;0.50;;;;;;;21.94;43.49;102223.41;5051769;27;123912;-42
2020/12/25 06:12:40;;;;;;;0.75;0.50;;;;;;;21.94;43.44;102229.69;5054662;27;109107;-42
2020/12/25 06:15:10;;;;;;;0.70;0.50;;;;;;;21.93;43.53;102221.69;5053694;27;109288;-42
2020/12/25 06:17:45;;;;;;;0.55;0.40;;;;;;;21.95;43.33;102227.84;5053303;27;124277;-42
2020/12/25 06:20:13;;;;;;;;;;;;;;;21.86;44.35;102221.25;5053769;27;123964;-42
2020/12/25 06:22:42;;;;;;;1.08;0.43;;;;;;;21.88;43.79;102230.09;5053695;27;109523;-42
2020/12/25 06:25:13;;;;;;;0.57;0.45;;;;;;;21.91;43.61;102232.59;5051722;27;109166;-42
2020/12/25 06:28:07;;;;;;;0.60;0.38;;;;;;;21.91;43.72;102229.91;5050532;27;124694;-42
2020/12/25 06:30:35;;;;;;;0.40;0.40;;;;;;;21.91;43.66;102238.00;5046565;27;124316;-43
2020/12/25 06:33:01;;;;;;;1.08;0.60;;;;;;;21.91;43.42;102246.09;5047931;27;109271;-42
2020/12/25 06:35:34;;;;;;;0.40;0.32;;;;;;;21.93;43.47;102246.84;5052159;27;108877;-42
2020/12/25 06:38:15;;;;;;;0.47;0.40;;;;;;;21.93;43.49;102254.06;5035775;27;124223;-42
2020/12/25 06:40:43;;;;;;;0.50;0.40;;;;;;;21.92;43.44;102247.78;5053592;27;124291;-42
2020/12/25 06:43:17;;;;;;;0.75;0.73;;;;;;;21.92;43.44;102247.78;5046312;27;109118;-42
2020/12/25 06:45:50;;;;;;;0.40;0.40;;;;;;;21.92;43.34;102242.41;5052438;27;109155;-42
2020/12/25 06:48:20;;;;;;;0.77;0.50;;;;;;;21.92;43.38;102247.78;5050034;27;124206;-42
2020/12/25 06:50:52;;;;;;;0.55;0.40;;;;;;;21.92;43.28;102258.59;5051968;27;124391;-43
2020/12/25 06:53:35;;;;;;;0.40;0.30;;;;;;;21.92;43.41;102257.72;5051221;27;110100;-42
2020/12/25 06:56:08;;;;;;;0.77;0.40;;;;;;;21.92;43.39;102258.59;5050570;27;110143;-42
2020/12/25 06:58:37;;;;;;;1.45;0.60;;;;;;;21.92;43.25;102263.97;5050869;27;123969;-42
2020/12/25 07:01:03;;;;;;;0.63;0.50;;;;;;;21.92;43.32;102263.97;5052446;27;124692;-42
2020/12/25 07:03:34;;;;;;;0.60;0.40;;;;;;;21.92;43.18;102269.38;5053700;27;109214;-42
2020/12/25 07:06:01;;;;;;;0.73;0.40;;;;;;;21.92;43.11;102280.16;5051957;27;109149;-42
2020/12/25 07:08:33;;;;;;;0.55;0.40;;;;;;;21.93;43.18;102275.66;5046360;27;124752;-42
2020/12/25 07:11:03;;;;;;;1.42;0.70;;;;;;;21.92;43.29;102282.88;5053371;27;124742;-39
2020/12/25 07:13:34;;;;;;;0.80;0.50;;;;;;;21.92;43.12;102274.78;5050420;27;109338;-40
2020/12/25 07:16:03;;;;;;;1.27;0.50;;;;;;;21.93;43.25;102276.50;5048042;27;108957;-39
2020/12/25 07:18:30;;;;;;;0.93;0.40;;;;;;;21.93;43.24;102276.50;5052974;27;124824;-40
2020/12/25 07:21:01;;;;;;;0.52;0.40;;;;;;;21.92;43.14;102284.69;5055699;27;123815;-40
2020/12/25 07:23:28;;;;;;;1.17;0.57;;;;;;;21.93;43.25;102281.91;5054387;27;109236;-40
2020/12/25 07:25:59;;;;;;;0.70;0.40;;;;;;;21.92;43.03;102280.16;5054561;27;109378;-40
2020/12/25 07:28:28;;;;;;;0.75;0.50;;;;;;;21.93;43.13;102287.31;5056097;27;124768;-40
2020/12/25 07:30:56;;;;;;;2.55;0.55;;;;;;;21.92;43.07;102285.56;5038024;27;122941;-39
2020/12/25 07:33:23;;;;;;;1.60;0.50;;;;;;;21.94;43.15;102293.56;5055627;27;109056;-40
2020/12/25 07:35:51;;;;;;;0.43;0.43;;;;;;;21.93;43.05;102295.41;5056780;27;109299;-40
2020/12/25 07:38:28;;;;;;;0.60;0.57;;;;;;;21.93;43.11;102292.69;5053734;27;124844;-40
2020/12/25 07:40:55;;;;;;;0.50;0.40;;;;;;;21.93;42.99;102298.09;5054005;27;123844;-40
2020/12/25 07:43:22;;;;;;;0.50;0.40;;;;;;;21.94;42.83;102294.44;5053497;27;110768;-40
2020/12/25 07:45:50;;;;;;;1.55;0.43;;;;;;;21.93;43.00;102292.69;5057355;27;110133;-40
2020/12/25 07:48:18;;;;;;;0.60;0.47;;;;;;;21.92;42.90;102296.34;5043183;27;123381;-40
2020/12/25 07:50:46;;;;;;;1.38;0.50;;;;;;;21.93;42.92;102297.25;5056984;27;123756;-40
2020/12/25 07:53:14;;;;;;;0.80;0.60;;;;;;;21.92;42.88;102296.34;5054249;27;109577;-40
2020/12/25 07:55:44;;;;;;;0.70;0.50;;;;;;;21.92;42.87;102296.34;5054761;27;109074;-39
2020/12/25 07:58:15;;;;;;;0.40;0.40;;;;;;;21.91;42.85;102300.03;5054490;27;123998;-40
2020/12/25 08:00:43;;;;;;;0.50;0.40;;;;;;;21.92;42.86;102307.13;5055474;27;124196;-42
2020/12/25 08:03:12;;;;;;;0.75;0.70;;;;;;;21.92;42.74;102317.94;5054163;27;109565;-43
2020/12/25 08:05:38;;;;;;;1.00;0.45;;;;;;;21.91;42.83;102308.13;5054786;27;109588;-43
2020/12/25 08:08:06;;;;;;;0.50;0.40;;;;;;;21.92;42.71;102317.94;5051258;27;124570;-43
2020/12/25 08:10:35;;;;;;;0.55;0.47;;;;;;;21.92;42.78;102317.94;5055491;27;125925;-43
2020/12/25 08:13:05;;;;;;;0.68;0.50;;;;;;;21.91;42.75;102316.22;5053726;27;109484;-42
2020/12/25 08:15:33;;;;;;;1.20;0.50;;;;;;;21.92;42.71;102328.72;5056798;27;109452;-43
2020/12/25 08:18:03;;;;;;;0.57;0.40;;;;;;;21.91;42.56;102327.00;5052446;27;124165;-42
2020/12/25 08:20:32;;;;;;;0.88;0.50;;;;;;;21.91;42.75;102316.22;5055885;27;124392;-42
2020/12/25 08:23:01;;;;;;;0.98;0.75;;;;;;;21.91;42.58;102321.63;5052957;27;114966;-42
2020/12/25 08:25:29;;;;;;;1.00;0.47;;;;;;;21.91;42.65;102327.00;5051060;27;113876;-44
2020/12/25 08:27:56;;;;;;;0.80;0.50;;;;;;;21.91;42.65;102327.00;5069753;22;124826;-40
2020/12/25 08:30:24;;;;;;;1.05;0.50;;;;;;;21.90;42.63;102325.28;5051778;27;124012;-40
2020/12/25 08:33:00;;;;;;;1.30;0.47;;;;;;;21.89;42.58;102328.97;5016870;27;115079;-40
2020/12/25 08:35:29;;;;;;;1.05;0.50;;;;;;;21.90;42.66;102324.41;5018794;27;115285;-40
2020/12/25 08:38:00;;;;;;;2.15;0.50;;;;;;;21.90;42.62;102327.97;5017151;27;124074;-40
2020/12/25 08:40:32;;;;;;;0.70;0.43;;;;;;;21.90;42.37;102330.66;5015141;27;124494;-40
2020/12/25 08:43:12;;;;;;;0.98;0.70;;;;;;;21.89;42.75;102328.97;5016888;27;114292;-40
2020/12/25 08:45:52;;;;;;;0.52;0.40;;;;;;;21.89;42.48;102339.75;5022886;27;114603;-40
2020/12/25 08:48:19;;;;;;;0.52;0.40;;;;;;;21.89;42.51;102345.16;5002069;27;124204;-40
2020/12/25 08:50:46;;;;;;;0.80;0.40;;;;;;;21.90;42.53;102351.41;5019084;27;123805;-40
2020/12/25 08:53:21;;;;;;;1.50;0.50;;;;;;;21.89;42.56;102358.63;5018035;27;114512;-40
2020/12/25 08:55:50;;;;;;;0.88;0.40;;;;;;;21.91;42.46;102359.38;5016100;28;113722;-40
2020/12/25 08:58:23;;;;;;;0.60;0.40;;;;;;;21.90;42.51;102363.03;5019985;27;124412;-40
2020/12/25 09:01:01;;;;;;;0.63;0.40;;;;;;;21.90;42.46;102362.19;5016696;27;124416;-40
2020/12/25 09:03:39;;;;;;;0.90;0.50;;;;;;;21.89;42.51;102366.72;5010615;27;114986;-40
2020/12/25 09:06:08;;;;;;;0.63;0.50;;;;;;;21.90;42.60;102370.28;5018903;27;114408;-40
2020/12/25 09:08:36;;;;;;;1.63;0.55;;;;;;;21.89;42.40;102374.81;5007050;28;123519;-40
2020/12/25 09:11:14;;;;;;;0.77;0.50;;;;;;;21.90;42.44;102373.81;5012775;28;124329;-39
2020/12/25 09:13:42;;;;;;;0.85;0.47;;;;;;;21.90;42.39;102373.81;5018164;27;114945;-40
2020/12/25 09:16:09;;;;;;;0.90;0.52;;;;;;;21.90;42.35;102383.75;5018573;27;114337;-40
2020/12/25 09:18:37;;;;;;;0.70;0.47;;;;;;;21.90;42.31;102373.81;5014411;27;124453;-40
2020/12/25 09:21:06;;;;;;;0.73;0.50;;;;;;;21.91;42.31;102370.19;5024560;27;124690;-42
2020/12/25 09:23:33;;;;;;;0.90;0.57;;;;;;;21.89;42.15;102366.72;5019251;27;115336;-42
2020/12/25 09:26:00;;;;;;;0.65;0.50;;;;;;;21.91;42.08;102380.97;5021350;27;115220;-42
2020/12/25 09:28:26;;;;;;;1.45;0.70;;;;;;;21.90;42.08;102375.66;5026637;28;124120;-42
2020/12/25 09:30:54;;;;;;;0.95;0.60;;;;;;;21.91;42.00;102375.56;5020519;27;124235;-42
2020/12/25 09:33:22;;;;;;;0.85;0.50;;;;;;;21.90;41.94;102381.06;5015832;27;114365;-43
2020/12/25 09:35:49;;;;;;;0.73;0.50;;;;;;;21.89;42.07;102377.50;5016310;27;114318;-43
2020/12/25 09:38:16;;;;;;;1.45;0.52;;;;;;;21.89;41.75;102377.50;5019997;27;124569;-42
2020/12/25 09:40:43;;;;;;;2.28;0.50;;;;;;;21.89;41.68;102382.91;5027863;27;124281;-42
2020/12/25 09:43:10;;;;;;;1.02;0.77;;;;;;;21.89;41.78;102393.69;5027254;27;114832;-42
2020/12/25 09:45:37;;;;;;;1.00;0.40;;;;;;;21.88;41.82;102381.16;5015855;28;113869;-42
2020/12/25 09:48:03;;;;;;;1.10;0.60;;;;;;;21.88;41.70;102381.16;5029654;27;124838;-42
2020/12/25 09:50:30;;;;;;;1.80;0.70;;;;;;;21.88;41.70;102389.25;5029058;27;123767;-42
2020/12/25 09:52:57;;;;;;;0.63;0.57;;;;;;;21.87;41.69;102384.84;5034865;27;114279;-42
2020/12/25 09:55:24;;;;;;;1.02;0.60;;;;;;;21.87;41.60;102384.84;5022871;27;114443;-42
2020/12/25 09:57:50;;;;;;;1.17;0.57;;;;;;;21.88;41.58;102385.69;5031728;27;124452;-42
2020/12/25 10:00:17;;;;;;;0.85;0.60;;;;;;;21.88;41.47;102397.34;5032443;27;124317;-49
2020/12/25 10:02:44;;;;;;;1.40;0.60;;;;;;;21.87;41.40;102389.34;5029418;27;114247;-42
2020/12/25 10:05:11;;;;;;;1.10;0.65;;;;;;;21.87;41.34;102390.25;5028144;27;114156;-43
2020/12/25 10:07:38;;;;;;;6.50;1.20;;;;;;;21.85;39.35;102381.41;5027595;27;124076;-42
2020/12/25 10:10:07;;;;;;;4.72;1.08;;;;;;;21.81;39.03;102379.84;5032287;27;125038;-42
2020/12/25 10:12:34;;;;;;;4.53;1.10;;;;;;;21.77;38.76;102378.34;5031464;27;115187;-42
2020/12/25 10:15:03;;;;;;;4.63;1.40;;;;;;;21.70;37.93;102377.03;5032009;27;115254;-42
2020/12/25 10:17:30;;;;;;;4.45;1.00;;;;;;;21.63;38.40;102379.28;5027811;27;124155;-42
2020/12/25 10:19:56;;;;;;;4.22;1.02;;;;;;;21.61;38.46;102377.69;5033150;27;123823;-42
2020/12/25 10:22:23;;;;;;;2.85;1.08;;;;;;;21.61;38.45;102372.28;5029089;27;114545;-42
2020/12/25 10:24:50;;;;;;;4.07;1.08;;;;;;;21.61;38.42;102383.91;5002784;28;113087;-42
2020/12/25 10:27:16;;;;;;;2.08;0.93;;;;;;;21.61;38.42;102383.06;5010713;27;123471;-42
2020/12/25 10:29:43;;;;;;;5.97;1.20;;;;;;;21.61;38.35;102388.47;5032532;27;124483;-42
2020/12/25 10:32:09;;;;;;;3.25;1.20;;;;;;;21.61;38.44;102383.06;5015209;27;114453;-43
2020/12/25 10:34:36;;;;;;;5.57;1.02;;;;;;;21.61;38.45;102383.91;5028910;27;114522;-42
2020/12/25 10:37:03;;;;;;;5.63;1.20;;;;;;;21.61;38.51;102383.06;5032189;27;124163;-57
2020/12/25 10:39:29;;;;;;;3.63;1.10;;;;;;;21.61;38.48;102399.25;5027415;27;123853;-42
2020/12/25 10:41:56;;;;;;;6.43;1.27;;;;;;;21.57;36.67;102394.03;5033173;27;114107;-42
2020/12/25 10:44:23;;;;;;;4.32;1.17;;;;;;;21.44;35.49;102390.44;5031306;27;114671;-42
2020/12/25 10:46:58;;;;;;;5.18;1.42;;;;;;;21.22;35.12;102390.09;5030184;27;124740;-50
2020/12/25 10:49:24;;;;;;;5.45;1.10;;;;;;;20.92;34.91;102396.50;5029607;27;123922;-42
2020/12/25 10:51:51;;;;;;;3.72;1.20;;;;;;;20.60;35.22;102392.19;5028516;27;114541;-43
2020/12/25 10:54:18;;;;;;;6.22;1.48;;;;;;;20.47;35.75;102390.34;5022847;28;114425;-42
2020/12/25 10:56:44;;;;;;;4.70;1.20;;;;;;;20.41;35.79;102386.19;5023089;27;124188;-42
2020/12/25 10:59:22;;;;;;;4.60;1.38;;;;;;;20.36;36.03;102378.44;5029213;27;123874;-42
2020/12/25 11:01:49;;;;;;;4.90;1.30;;;;;;;20.34;35.87;102385.75;5028008;27;115771;-42
2020/12/25 11:04:15;;;;;;;5.47;1.30;;;;;;;20.27;36.06;102376.31;5039666;27;115113;-43
2020/12/25 11:06:44;;;;;;;2.85;1.08;;;;;;;20.26;36.44;102381.78;5023823;27;124064;-38
2020/12/25 11:09:11;;;;;;;3.90;1.25;;;;;;;20.64;37.75;102387.47;5031585;27;124567;-40
2020/12/25 16:35:22;;;;;;;;;;;;;;;12.41;67.05;102459.63;5006311;28;96477;-43
2020/12/25 16:37:49;;;;;;;3.90;0.85;;;;;;;15.06;58.09;102452.00;4998646;28;107228;-45
2020/12/25 16:40:16;;;;;;;3.60;0.90;;;;;;;16.21;50.87;102456.34;4987658;28;124050;-46
2020/12/25 16:42:42;;;;;;;5.15;1.00;;;;;;;16.87;48.80;102456.97;4985969;28;123919;-46
2020/12/25 16:45:09;;;;;;;3.78;0.85;;;;;;;17.45;46.72;102453.38;4989959;28;108091;-46
2020/12/25 16:47:36;;;;;;;2.70;0.95;;;;;;;18.00;45.10;102457.84;4991799;28;107540;-46